createdAt,value
2017-03-27T00:00:06.780Z,21.99
2017-03-27T00:01:17.183Z,21.86
2017-03-27T00:02:26.810Z,21.98
2017-03-27T00:03:36.988Z,21.96
2017-03-27T00:04:47.247Z,22
2017-03-27T00:05:57.187Z,22.02
2017-03-27T00:07:07.623Z,21.92
2017-03-27T00:08:17.573Z,21.92
2017-03-27T00:09:27.840Z,21.98
2017-03-27T00:10:37.774Z,21.91
2017-03-27T00:11:47.403Z,21.96
2017-03-27T00:12:57.499Z,21.94
2017-03-27T00:14:07.123Z,21.91
2017-03-27T00:15:17.360Z,21.91
2017-03-27T00:16:26.986Z,21.96
2017-03-27T00:17:36.903Z,21.98
2017-03-27T00:18:46.978Z,22.02
2017-03-27T00:19:57.219Z,21.99
2017-03-27T00:21:07.146Z,21.86
2017-03-27T00:22:17.075Z,22
2017-03-27T00:23:27.319Z,21.91
2017-03-27T00:24:37.722Z,22
2017-03-27T00:25:47.340Z,21.99
2017-03-27T00:26:57.269Z,21.9
2017-03-27T00:28:07.519Z,21.92
2017-03-27T00:29:16.855Z,21.92
2017-03-27T00:30:26.898Z,21.86
2017-03-27T00:31:36.227Z,21.91
2017-03-27T00:32:46.165Z,21.94
2017-03-27T00:33:56.096Z,21.91
2017-03-27T00:35:06.043Z,21.98
2017-03-27T00:36:16.136Z,21.92
2017-03-27T00:37:26.116Z,21.92
2017-03-27T00:38:36.387Z,21.86
2017-03-27T00:39:46.358Z,21.91
2017-03-27T00:40:56.319Z,21.92
2017-03-27T00:42:06.701Z,21.9
2017-03-27T00:43:16.652Z,21.92
2017-03-27T00:44:26.600Z,21.91
2017-03-27T00:45:36.876Z,21.9
2017-03-27T00:46:47.132Z,21.96
2017-03-27T00:47:57.183Z,21.91
2017-03-27T00:49:07.131Z,21.91
2017-03-27T00:50:17.369Z,21.91
2017-03-27T00:51:27.595Z,21.99
2017-03-27T00:52:37.862Z,21.88
2017-03-27T00:53:48.202Z,21.96
2017-03-27T00:54:58.148Z,21.84
2017-03-27T00:56:07.765Z,21.9
2017-03-27T00:57:17.075Z,21.86
2017-03-27T00:58:27.300Z,21.92
2017-03-27T00:59:37.686Z,21.91
2017-03-27T01:00:47.903Z,21.96
2017-03-27T01:01:57.820Z,21.92
2017-03-27T01:03:07.740Z,21.82
2017-03-27T01:04:17.969Z,21.92
2017-03-27T01:05:27.721Z,21.88
2017-03-27T01:06:37.949Z,21.92
2017-03-27T01:07:47.254Z,21.92
2017-03-27T01:08:57.467Z,21.82
2017-03-27T01:10:07.089Z,21.82
2017-03-27T01:11:17.518Z,21.92
2017-03-27T01:12:27.461Z,21.94
2017-03-27T01:13:37.384Z,21.84
2017-03-27T01:14:47.221Z,21.92
2017-03-27T01:15:56.535Z,21.9
2017-03-27T01:17:06.932Z,21.77
2017-03-27T01:18:16.866Z,21.83
2017-03-27T01:19:26.827Z,21.9
2017-03-27T01:20:37.074Z,21.74
2017-03-27T01:21:47.322Z,21.9
2017-03-27T01:22:57.866Z,21.9
2017-03-27T01:24:07.486Z,21.72
2017-03-27T01:25:17.736Z,21.84
2017-03-27T01:26:27.703Z,21.91
2017-03-27T01:27:37.928Z,21.74
2017-03-27T01:28:48.008Z,21.84
2017-03-27T01:29:57.943Z,21.83
2017-03-27T01:31:07.554Z,21.74
2017-03-27T01:32:18.177Z,21.86
2017-03-27T01:33:28.407Z,21.77
2017-03-27T01:34:38.191Z,21.83
2017-03-27T01:35:48.415Z,21.77
2017-03-27T01:36:58.336Z,21.86
2017-03-27T01:38:07.946Z,21.83
2017-03-27T01:39:17.879Z,21.8
2017-03-27T01:40:27.642Z,21.83
2017-03-27T01:41:37.554Z,21.8
2017-03-27T01:42:47.164Z,21.77
2017-03-27T01:43:57.075Z,21.75
2017-03-27T01:45:06.984Z,21.77
2017-03-27T01:46:17.030Z,21.72
2017-03-27T01:47:26.625Z,21.72
2017-03-27T01:48:36.546Z,21.72
2017-03-27T01:49:46.155Z,21.72
2017-03-27T01:50:55.748Z,21.75
2017-03-27T01:52:06.213Z,21.75
2017-03-27T01:53:16.124Z,21.74
2017-03-27T01:54:26.038Z,21.72
2017-03-27T01:55:35.636Z,21.72
2017-03-27T01:56:45.546Z,21.72
2017-03-27T01:57:55.621Z,21.72
2017-03-27T01:59:05.224Z,21.69
2017-03-27T02:00:15.148Z,21.71
2017-03-27T02:01:25.053Z,21.62
2017-03-27T02:02:34.662Z,21.68
2017-03-27T02:03:44.112Z,21.67
2017-03-27T02:04:54.325Z,21.61
2017-03-27T02:06:04.271Z,21.74
2017-03-27T02:07:14.177Z,21.72
2017-03-27T02:08:24.420Z,21.67
2017-03-27T02:09:33.866Z,21.65
2017-03-27T02:10:44.080Z,21.62
2017-03-27T02:11:53.679Z,21.69
2017-03-27T02:13:03.581Z,21.62
2017-03-27T02:14:13.799Z,21.65
2017-03-27T02:15:24.167Z,21.59
2017-03-27T02:16:34.072Z,21.65
2017-03-27T02:17:43.976Z,21.68
2017-03-27T02:18:54.185Z,21.62
2017-03-27T02:20:04.404Z,21.65
2017-03-27T02:21:14.149Z,21.65
2017-03-27T02:22:24.362Z,21.62
2017-03-27T02:23:34.261Z,21.62
2017-03-27T02:24:44.171Z,21.61
2017-03-27T02:25:54.385Z,21.61
2017-03-27T02:27:04.715Z,21.64
2017-03-27T02:28:14.928Z,21.61
2017-03-27T02:29:25.133Z,21.59
2017-03-27T02:30:35.340Z,21.61
2017-03-27T02:31:45.239Z,21.58
2017-03-27T02:32:55.318Z,21.61
2017-03-27T02:34:05.550Z,21.61
2017-03-27T02:35:15.158Z,21.59
2017-03-27T02:36:25.371Z,21.59
2017-03-27T02:37:34.978Z,21.56
2017-03-27T02:38:45.057Z,21.58
2017-03-27T02:39:54.962Z,21.59
2017-03-27T02:41:04.569Z,21.58
2017-03-27T02:42:14.475Z,21.58
2017-03-27T02:43:24.389Z,21.62
2017-03-27T02:44:34.759Z,21.59
2017-03-27T02:45:44.676Z,21.59
2017-03-27T02:46:54.281Z,21.59
2017-03-27T02:48:04.520Z,21.56
2017-03-27T02:49:14.137Z,21.58
2017-03-27T02:50:24.512Z,21.59
2017-03-27T02:51:34.430Z,21.56
2017-03-27T02:52:44.642Z,21.54
2017-03-27T02:53:54.567Z,21.58
2017-03-27T02:55:04.481Z,21.56
2017-03-27T02:56:15.015Z,21.54
2017-03-27T02:57:24.932Z,21.54
2017-03-27T02:58:34.526Z,21.58
2017-03-27T02:59:44.743Z,21.53
2017-03-27T03:00:54.650Z,21.53
2017-03-27T03:02:05.019Z,21.58
2017-03-27T03:03:15.261Z,21.58
2017-03-27T03:04:25.491Z,21.59
2017-03-27T03:05:35.404Z,21.56
2017-03-27T03:06:45.616Z,21.52
2017-03-27T03:07:55.676Z,21.58
2017-03-27T03:09:05.909Z,21.5
2017-03-27T03:10:16.132Z,21.58
2017-03-27T03:11:25.424Z,21.52
2017-03-27T03:12:35.043Z,21.49
2017-03-27T03:13:44.797Z,21.54
2017-03-27T03:14:55.008Z,21.58
2017-03-27T03:16:04.312Z,21.58
2017-03-27T03:17:14.530Z,21.59
2017-03-27T03:18:24.747Z,21.58
2017-03-27T03:19:35.110Z,21.47
2017-03-27T03:20:45.340Z,21.52
2017-03-27T03:21:55.256Z,21.53
2017-03-27T03:23:05.182Z,21.54
2017-03-27T03:24:15.405Z,21.46
2017-03-27T03:25:25.172Z,21.5
2017-03-27T03:26:35.065Z,21.5
2017-03-27T03:27:45.282Z,21.49
2017-03-27T03:28:55.495Z,21.43
2017-03-27T03:30:05.106Z,21.5
2017-03-27T03:31:14.862Z,21.47
2017-03-27T03:32:24.774Z,21.49
2017-03-27T03:33:34.397Z,21.43
2017-03-27T03:34:44.307Z,21.53
2017-03-27T03:35:54.526Z,21.49
2017-03-27T03:37:04.901Z,21.44
2017-03-27T03:38:15.128Z,21.52
2017-03-27T03:39:24.744Z,21.44
2017-03-27T03:40:34.644Z,21.42
2017-03-27T03:41:44.862Z,21.52
2017-03-27T03:42:54.318Z,21.43
2017-03-27T03:44:04.548Z,21.49
2017-03-27T03:45:14.773Z,21.37
2017-03-27T03:46:24.678Z,21.4
2017-03-27T03:47:34.896Z,21.42
2017-03-27T03:48:45.272Z,21.43
2017-03-27T03:49:55.179Z,21.37
2017-03-27T03:51:05.098Z,21.4
2017-03-27T03:52:15.004Z,21.47
2017-03-27T03:53:24.627Z,21.4
2017-03-27T03:54:34.714Z,21.42
2017-03-27T03:55:44.317Z,21.44
2017-03-27T03:56:53.931Z,21.43
2017-03-27T03:58:04.151Z,21.47
2017-03-27T03:59:14.370Z,21.43
2017-03-27T04:00:24.192Z,21.44
2017-03-27T04:01:34.410Z,21.43
2017-03-27T04:02:44.006Z,21.42
2017-03-27T04:03:54.250Z,21.38
2017-03-27T04:05:04.171Z,21.4
2017-03-27T04:06:14.235Z,21.38
2017-03-27T04:07:24.153Z,21.43
2017-03-27T04:08:34.386Z,21.42
2017-03-27T04:09:44.005Z,21.43
2017-03-27T04:10:54.220Z,21.4
2017-03-27T04:12:04.597Z,21.42
2017-03-27T04:13:14.513Z,21.43
2017-03-27T04:14:24.419Z,21.38
2017-03-27T04:15:34.327Z,21.42
2017-03-27T04:16:44.235Z,21.44
2017-03-27T04:17:53.981Z,21.4
2017-03-27T04:19:03.924Z,21.38
2017-03-27T04:20:13.826Z,21.44
2017-03-27T04:21:23.447Z,21.37
2017-03-27T04:22:33.362Z,21.43
2017-03-27T04:23:43.423Z,21.42
2017-03-27T04:24:53.645Z,21.46
2017-03-27T04:26:03.862Z,21.42
2017-03-27T04:27:13.775Z,21.38
2017-03-27T04:28:23.678Z,21.37
2017-03-27T04:29:34.197Z,21.38
2017-03-27T04:30:44.111Z,21.43
2017-03-27T04:31:54.018Z,21.42
2017-03-27T04:33:04.234Z,21.42
2017-03-27T04:34:14.144Z,21.44
2017-03-27T04:35:23.874Z,21.43
2017-03-27T04:36:33.784Z,21.42
2017-03-27T04:37:43.708Z,21.4
2017-03-27T04:38:53.925Z,21.43
2017-03-27T04:40:03.842Z,21.43
2017-03-27T04:41:13.849Z,21.4
2017-03-27T04:42:23.755Z,21.44
2017-03-27T04:43:33.666Z,21.56
2017-03-27T04:44:43.595Z,21.53
2017-03-27T04:45:53.555Z,21.53
2017-03-27T04:47:03.882Z,21.62
2017-03-27T04:48:13.820Z,21.61
2017-03-27T04:49:23.746Z,21.64
2017-03-27T04:50:33.367Z,21.64
2017-03-27T04:51:42.977Z,21.77
2017-03-27T04:52:52.983Z,21.77
2017-03-27T04:54:02.604Z,21.74
2017-03-27T04:55:12.517Z,21.86
2017-03-27T04:56:22.433Z,21.84
2017-03-27T04:57:32.335Z,21.99
2017-03-27T04:58:42.048Z,21.96
2017-03-27T04:59:52.281Z,21.96
2017-03-27T05:01:02.505Z,22.03
2017-03-27T05:02:12.425Z,22.2
2017-03-27T05:03:22.648Z,22.18
2017-03-27T05:04:32.415Z,22.22
2017-03-27T05:05:42.319Z,22.28
2017-03-27T05:06:52.530Z,22.3
2017-03-27T05:08:01.836Z,22.39
2017-03-27T05:09:11.755Z,22.36
2017-03-27T05:10:21.204Z,22.37
2017-03-27T05:11:31.426Z,22.46
2017-03-27T05:12:40.402Z,22.51
2017-03-27T05:13:50.322Z,22.55
2017-03-27T05:14:59.927Z,22.52
2017-03-27T05:16:09.673Z,22.68
2017-03-27T05:17:19.599Z,22.54
2017-03-27T05:18:29.835Z,22.68
2017-03-27T05:19:39.790Z,22.68
2017-03-27T05:20:49.403Z,22.75
2017-03-27T05:21:59.470Z,22.82
2017-03-27T05:23:09.677Z,22.85
2017-03-27T05:24:19.287Z,22.95
2017-03-27T05:25:29.509Z,23.02
2017-03-27T05:26:39.410Z,23
2017-03-27T05:27:49.623Z,23.15
2017-03-27T05:28:59.530Z,23.13
2017-03-27T05:30:09.754Z,23.15
2017-03-27T05:31:19.970Z,23.27
2017-03-27T05:32:30.233Z,23.22
2017-03-27T05:33:40.296Z,23.23
2017-03-27T05:34:50.206Z,23.28
2017-03-27T05:36:00.153Z,23.35
2017-03-27T05:37:09.787Z,23.35
2017-03-27T05:38:20.035Z,23.39
2017-03-27T05:39:29.500Z,23.47
2017-03-27T05:40:39.725Z,23.42
2017-03-27T05:41:49.716Z,23.46
2017-03-27T05:42:59.944Z,23.58
2017-03-27T05:44:09.551Z,23.53
2017-03-27T05:45:19.310Z,23.4
2017-03-27T05:46:29.237Z,23.31
2017-03-27T05:47:39.197Z,23.05
2017-03-27T05:48:49.458Z,22.83
2017-03-27T05:49:59.691Z,22.58
2017-03-27T05:51:09.760Z,22.35
2017-03-27T05:52:20.061Z,22.1
2017-03-27T05:53:30.307Z,21.96
2017-03-27T05:54:40.233Z,21.91
2017-03-27T05:55:50.151Z,21.84
2017-03-27T05:57:00.209Z,21.82
2017-03-27T05:58:10.145Z,21.82
2017-03-27T05:59:20.366Z,21.84
2017-03-27T06:00:29.669Z,21.86
2017-03-27T06:01:39.581Z,21.91
2017-03-27T06:02:49.369Z,21.94
2017-03-27T06:03:59.293Z,21.94
2017-03-27T06:05:09.223Z,21.99
2017-03-27T06:06:19.113Z,22
2017-03-27T06:07:28.718Z,22
2017-03-27T06:08:38.491Z,22
2017-03-27T06:09:47.807Z,21.98
2017-03-27T06:10:57.762Z,22.05
2017-03-27T06:12:08.019Z,22.07
2017-03-27T06:13:17.672Z,22.06
2017-03-27T06:14:28.050Z,22.07
2017-03-27T06:15:37.990Z,22.18
2017-03-27T06:16:47.913Z,22.17
2017-03-27T06:17:57.532Z,22.17
2017-03-27T06:19:07.472Z,22.12
2017-03-27T06:20:18.060Z,22.24
2017-03-27T06:21:27.982Z,22.2
2017-03-27T06:22:37.915Z,22.18
2017-03-27T06:23:48.154Z,22.17
2017-03-27T06:24:58.089Z,22.2
2017-03-27T06:26:07.862Z,22.22
2017-03-27T06:27:18.149Z,22.27
2017-03-27T06:28:27.798Z,22.2
2017-03-27T06:29:37.730Z,22.24
2017-03-27T06:30:47.964Z,22.2
2017-03-27T06:31:58.347Z,22.2
2017-03-27T06:33:08.574Z,22.21
2017-03-27T06:34:18.490Z,22.2
2017-03-27T06:35:28.716Z,22.28
2017-03-27T06:36:38.978Z,22.22
2017-03-27T06:37:49.004Z,22.22
2017-03-27T06:38:59.233Z,22.2
2017-03-27T06:40:09.160Z,22.28
2017-03-27T06:41:19.090Z,22.25
2017-03-27T06:42:28.683Z,22.25
2017-03-27T06:43:38.099Z,22.22
2017-03-27T06:44:47.423Z,22.3
2017-03-27T06:45:57.668Z,22.22
2017-03-27T06:47:07.898Z,22.27
2017-03-27T06:48:17.856Z,22.27
2017-03-27T06:49:28.193Z,22.24
2017-03-27T06:50:38.428Z,22.25
2017-03-27T06:51:47.755Z,22.25
2017-03-27T06:52:57.992Z,22.28
2017-03-27T06:54:07.605Z,22.22
2017-03-27T06:55:17.323Z,22.27
2017-03-27T06:56:26.627Z,22.24
2017-03-27T06:57:35.925Z,22.25
2017-03-27T06:58:46.166Z,22.22
2017-03-27T06:59:56.400Z,22.24
2017-03-27T07:01:06.117Z,22.2
2017-03-27T07:02:15.441Z,22.28
2017-03-27T07:03:25.133Z,22.22
2017-03-27T07:04:35.054Z,22.24
2017-03-27T07:05:44.973Z,22.27
2017-03-27T07:06:55.352Z,22.21
2017-03-27T07:08:05.273Z,22.21
2017-03-27T07:09:15.519Z,22.24
2017-03-27T07:10:25.138Z,22.21
2017-03-27T07:11:34.756Z,22.21
2017-03-27T07:12:44.895Z,22.21
2017-03-27T07:13:55.131Z,22.18
2017-03-27T07:15:05.042Z,22.18
2017-03-27T07:16:14.975Z,22.22
2017-03-27T07:17:24.590Z,22.15
2017-03-27T07:18:34.659Z,22.22
2017-03-27T07:19:44.277Z,22.2
2017-03-27T07:20:54.508Z,22.21
2017-03-27T07:22:04.420Z,22.18
2017-03-27T07:23:14.336Z,22.18
2017-03-27T07:24:24.722Z,22.22
2017-03-27T07:25:34.334Z,22.21
2017-03-27T07:26:43.948Z,22.21
2017-03-27T07:27:54.186Z,22.2
2017-03-27T07:29:03.816Z,22.18
2017-03-27T07:30:13.293Z,22.22
2017-03-27T07:31:23.217Z,22.14
2017-03-27T07:32:33.205Z,22.21
2017-03-27T07:33:43.126Z,22.2
2017-03-27T07:34:52.739Z,22.18
2017-03-27T07:36:02.600Z,22.18
2017-03-27T07:37:12.833Z,22.2
2017-03-27T07:38:22.444Z,22.2
2017-03-27T07:39:32.744Z,22.21
2017-03-27T07:40:42.975Z,22.22
2017-03-27T07:41:52.734Z,22.21
2017-03-27T07:43:02.644Z,22.22
2017-03-27T07:44:12.260Z,22.2
2017-03-27T07:45:22.176Z,22.18
2017-03-27T07:46:31.790Z,22.18
2017-03-27T07:47:41.244Z,22.21
2017-03-27T07:48:50.866Z,22.14
2017-03-27T07:50:00.484Z,22.18
2017-03-27T07:51:10.445Z,22.18
2017-03-27T07:52:20.708Z,22.17
2017-03-27T07:53:30.876Z,22.21
2017-03-27T07:54:40.206Z,22.21
2017-03-27T07:55:50.439Z,22.24
2017-03-27T07:57:00.355Z,22.24
2017-03-27T07:58:10.278Z,22.22
2017-03-27T07:59:20.154Z,22.18
2017-03-27T08:00:29.814Z,22.12
2017-03-27T08:01:39.727Z,22.2
2017-03-27T08:02:49.642Z,22.21
2017-03-27T08:03:59.901Z,22.22
2017-03-27T08:05:10.078Z,22.17
2017-03-27T08:06:20.309Z,22.22
2017-03-27T08:07:30.254Z,22.21
2017-03-27T08:08:40.189Z,22.21
2017-03-27T08:09:49.818Z,22.21
2017-03-27T08:10:59.745Z,22.22
2017-03-27T08:12:09.062Z,22.2
2017-03-27T08:13:19.302Z,22.2
2017-03-27T08:14:28.942Z,22.22
2017-03-27T08:15:39.174Z,22.2
2017-03-27T08:16:49.560Z,22.17
2017-03-27T08:17:59.520Z,22.21
2017-03-27T08:19:09.433Z,22.14
2017-03-27T08:20:19.406Z,22.2
2017-03-27T08:21:29.632Z,22.2
2017-03-27T08:22:40.015Z,22.18
2017-03-27T08:23:49.626Z,22.17
2017-03-27T08:24:59.856Z,22.22
2017-03-27T08:26:09.158Z,22.25
2017-03-27T08:27:19.073Z,22.25
2017-03-27T08:28:29.155Z,22.18
2017-03-27T08:29:38.798Z,22.21
2017-03-27T08:30:48.438Z,22.25
2017-03-27T08:31:58.047Z,22.24
2017-03-27T08:33:07.971Z,22.31
2017-03-27T08:34:18.065Z,22.27
2017-03-27T08:35:27.079Z,22.25
2017-03-27T08:36:36.419Z,22.27
2017-03-27T08:37:45.724Z,22.27
2017-03-27T08:38:55.043Z,22.31
2017-03-27T08:40:05.061Z,22.22
2017-03-27T08:41:15.307Z,22.27
2017-03-27T08:42:24.610Z,22.24
2017-03-27T08:43:33.921Z,22.21
2017-03-27T08:44:43.849Z,22.24
2017-03-27T08:45:53.868Z,22.25
2017-03-27T08:47:04.105Z,22.31
2017-03-27T08:48:13.727Z,22.21
2017-03-27T08:49:23.960Z,22.28
2017-03-27T08:50:33.863Z,22.25
2017-03-27T08:51:43.668Z,22.33
2017-03-27T08:52:52.656Z,22.22
2017-03-27T08:54:02.580Z,22.25
2017-03-27T08:55:12.196Z,22.28
2017-03-27T08:56:21.501Z,22.25
2017-03-27T08:57:31.519Z,22.28
2017-03-27T08:58:41.445Z,22.28
2017-03-27T08:59:51.371Z,22.28
2017-03-27T09:01:01.305Z,22.27
2017-03-27T09:02:11.527Z,22.28
2017-03-27T09:03:21.549Z,22.22
2017-03-27T09:04:31.162Z,22.31
2017-03-27T09:05:40.780Z,22.22
2017-03-27T09:06:50.394Z,22.2
2017-03-27T09:08:00.321Z,22.24
2017-03-27T09:09:10.869Z,22.27
2017-03-27T09:10:20.786Z,22.22
2017-03-27T09:11:30.395Z,22.22
2017-03-27T09:12:40.313Z,22.22
2017-03-27T09:13:49.948Z,22.22
2017-03-27T09:15:00.029Z,22.27
2017-03-27T09:16:09.951Z,22.24
2017-03-27T09:17:19.258Z,22.27
2017-03-27T09:18:29.191Z,22.25
2017-03-27T09:19:38.503Z,22.25
2017-03-27T09:20:48.579Z,22.24
2017-03-27T09:21:58.499Z,22.28
2017-03-27T09:23:08.711Z,22.2
2017-03-27T09:24:18.973Z,22.25
2017-03-27T09:25:28.878Z,22.22
2017-03-27T09:26:38.324Z,22.2
2017-03-27T09:27:47.924Z,22.25
2017-03-27T09:28:57.848Z,22.25
2017-03-27T09:30:07.766Z,22.17
2017-03-27T09:31:17.704Z,22.2
2017-03-27T09:32:28.080Z,22.25
2017-03-27T09:33:38.078Z,22.21
2017-03-27T09:34:48.003Z,22.25
2017-03-27T09:35:58.246Z,22.22
2017-03-27T09:37:09.067Z,22.27
2017-03-27T09:38:19.441Z,22.22
2017-03-27T09:39:29.703Z,22.22
2017-03-27T09:40:39.624Z,22.24
2017-03-27T09:41:49.544Z,22.21
2017-03-27T09:42:59.477Z,22.2
2017-03-27T09:44:09.547Z,22.18
2017-03-27T09:45:19.474Z,22.2
2017-03-27T09:46:29.091Z,22.24
2017-03-27T09:47:38.711Z,22.21
2017-03-27T09:48:48.321Z,22.24
2017-03-27T09:49:58.396Z,22.21
2017-03-27T09:51:08.310Z,22.21
2017-03-27T09:52:18.551Z,22.17
2017-03-27T09:53:28.472Z,22.27
2017-03-27T09:54:38.130Z,22.17
2017-03-27T09:55:47.897Z,22.2
2017-03-27T09:56:58.155Z,22.2
2017-03-27T09:58:08.462Z,22.2
2017-03-27T09:59:18.114Z,22.18
2017-03-27T10:00:27.740Z,22.25
2017-03-27T10:01:37.586Z,22.21
2017-03-27T10:02:47.949Z,22.21
2017-03-27T10:03:57.607Z,22.18
2017-03-27T10:05:06.938Z,22.21
2017-03-27T10:06:16.963Z,22.18
2017-03-27T10:07:27.165Z,22.24
2017-03-27T10:08:36.901Z,22.21
2017-03-27T10:09:47.229Z,22.18
2017-03-27T10:10:57.421Z,22.21
2017-03-27T10:12:07.340Z,22.18
2017-03-27T10:13:17.153Z,22.22
2017-03-27T10:14:27.193Z,22.17
2017-03-27T10:15:37.226Z,22.25
2017-03-27T10:16:46.938Z,22.18
2017-03-27T10:17:56.461Z,22.25
2017-03-27T10:19:07.032Z,22.17
2017-03-27T10:20:17.507Z,22.22
2017-03-27T10:21:27.812Z,22.25
2017-03-27T10:22:37.783Z,22.24
2017-03-27T10:23:47.399Z,22.24
2017-03-27T10:24:57.232Z,22.25
2017-03-27T10:26:07.249Z,22.27
2017-03-27T10:27:17.643Z,22.3
2017-03-27T10:28:28.066Z,22.24
2017-03-27T10:29:38.157Z,22.31
2017-03-27T10:30:48.260Z,22.24
2017-03-27T10:31:58.233Z,22.33
2017-03-27T10:33:07.541Z,22.31
2017-03-27T10:34:17.555Z,22.28
2017-03-27T10:35:27.277Z,22.31
2017-03-27T10:36:37.511Z,22.28
2017-03-27T10:37:47.503Z,22.31
2017-03-27T10:38:57.484Z,22.39
2017-03-27T10:40:07.176Z,22.39
2017-03-27T10:41:17.150Z,22.37
2017-03-27T10:42:27.729Z,22.39
2017-03-27T10:43:37.995Z,22.37
2017-03-27T10:44:48.240Z,22.36
2017-03-27T10:45:58.559Z,22.37
2017-03-27T10:47:08.221Z,22.42
2017-03-27T10:48:18.263Z,22.46
2017-03-27T10:49:28.511Z,22.36
2017-03-27T10:50:38.755Z,22.43
2017-03-27T10:51:48.696Z,22.47
2017-03-27T10:52:58.658Z,22.46
2017-03-27T10:54:08.075Z,22.43
2017-03-27T10:55:18.005Z,22.43
2017-03-27T10:56:28.225Z,22.46
2017-03-27T10:57:38.472Z,22.42
2017-03-27T10:58:48.388Z,22.45
2017-03-27T10:59:58.119Z,22.45
2017-03-27T11:01:08.072Z,22.47
2017-03-27T11:02:17.698Z,22.47
2017-03-27T11:03:27.937Z,22.46
2017-03-27T11:04:37.883Z,22.49
2017-03-27T11:05:47.902Z,22.51
2017-03-27T11:06:57.529Z,22.43
2017-03-27T11:08:07.756Z,22.45
2017-03-27T11:09:17.686Z,22.37
2017-03-27T11:10:27.607Z,22.45
2017-03-27T11:11:37.368Z,22.43
2017-03-27T11:12:46.985Z,22.45
2017-03-27T11:13:56.918Z,22.46
2017-03-27T11:15:06.848Z,22.45
2017-03-27T11:16:16.144Z,22.47
2017-03-27T11:17:26.515Z,22.43
2017-03-27T11:18:36.429Z,22.43
2017-03-27T11:19:46.355Z,22.37
2017-03-27T11:20:56.595Z,22.46
2017-03-27T11:22:06.202Z,22.45
2017-03-27T11:23:15.715Z,22.37
2017-03-27T11:24:25.640Z,22.43
2017-03-27T11:25:35.561Z,22.46
2017-03-27T11:26:45.483Z,22.47
2017-03-27T11:27:55.430Z,22.45
2017-03-27T11:29:05.821Z,22.4
2017-03-27T11:30:16.042Z,22.36
2017-03-27T11:31:25.351Z,22.43
2017-03-27T11:32:35.274Z,22.4
2017-03-27T11:33:45.212Z,22.4
2017-03-27T11:34:55.291Z,22.4
2017-03-27T11:36:05.219Z,22.47
2017-03-27T11:37:14.849Z,22.45
2017-03-27T11:38:25.152Z,22.42
2017-03-27T11:39:35.074Z,22.39
2017-03-27T11:40:44.238Z,22.47
2017-03-27T11:41:54.461Z,22.39
2017-03-27T11:43:04.397Z,22.37
2017-03-27T11:44:13.704Z,22.45
2017-03-27T11:45:23.368Z,22.37
2017-03-27T11:46:33.155Z,22.37
2017-03-27T11:47:42.469Z,22.45
2017-03-27T11:48:51.792Z,22.46
2017-03-27T11:50:00.804Z,22.45
2017-03-27T11:51:10.746Z,22.45
2017-03-27T11:52:20.523Z,22.43
2017-03-27T11:53:30.454Z,22.42
2017-03-27T11:54:40.359Z,22.39
2017-03-27T11:55:50.279Z,22.36
2017-03-27T11:56:58.964Z,22.39
2017-03-27T11:58:08.762Z,22.45
2017-03-27T11:59:18.111Z,22.45
2017-03-27T12:00:27.740Z,22.45
2017-03-27T12:01:37.057Z,22.46
2017-03-27T12:02:46.081Z,22.45
2017-03-27T12:03:55.931Z,22.4
2017-03-27T12:05:05.586Z,22.47
2017-03-27T12:06:15.495Z,22.39
2017-03-27T12:07:24.814Z,22.47
2017-03-27T12:08:35.054Z,22.36
2017-03-27T12:09:44.829Z,22.4
2017-03-27T12:10:54.759Z,22.43
2017-03-27T12:12:04.989Z,22.46
2017-03-27T12:13:14.928Z,22.46
2017-03-27T12:14:24.533Z,22.47
2017-03-27T12:15:34.640Z,22.42
2017-03-27T12:16:44.237Z,22.45
2017-03-27T12:17:54.479Z,22.39
2017-03-27T12:19:04.704Z,22.49
2017-03-27T12:20:14.946Z,22.46
2017-03-27T12:21:24.721Z,22.4
2017-03-27T12:22:34.652Z,22.47
2017-03-27T12:23:44.586Z,22.39
2017-03-27T12:24:53.932Z,22.46
2017-03-27T12:26:03.880Z,22.36
2017-03-27T12:27:13.648Z,22.47
2017-03-27T12:28:22.656Z,22.46
2017-03-27T12:29:32.322Z,22.45
2017-03-27T12:30:41.956Z,22.47
2017-03-27T12:31:51.891Z,22.45
2017-03-27T12:33:01.763Z,22.45
2017-03-27T12:34:11.079Z,22.43
2017-03-27T12:35:21.017Z,22.47
2017-03-27T12:36:30.674Z,22.45
2017-03-27T12:37:40.293Z,22.46
2017-03-27T12:38:50.040Z,22.45
2017-03-27T12:39:59.967Z,22.36
2017-03-27T12:41:09.630Z,22.39
2017-03-27T12:42:18.965Z,22.4
2017-03-27T12:43:28.886Z,22.42
2017-03-27T12:44:38.306Z,22.49
2017-03-27T12:45:47.961Z,22.52
2017-03-27T12:46:57.289Z,22.46
2017-03-27T12:48:06.938Z,22.57
2017-03-27T12:49:16.241Z,22.61
2017-03-27T12:50:25.673Z,22.54
2017-03-27T12:51:35.017Z,22.52
2017-03-27T12:52:44.393Z,22.57
2017-03-27T12:53:54.077Z,22.55
2017-03-27T12:55:03.712Z,22.58
2017-03-27T12:56:13.432Z,22.58
2017-03-27T12:57:22.447Z,22.58
2017-03-27T12:58:32.076Z,22.6
2017-03-27T12:59:41.782Z,22.67
2017-03-27T13:00:51.418Z,22.64
2017-03-27T13:02:01.150Z,22.62
2017-03-27T13:03:11.423Z,22.65
2017-03-27T13:04:21.667Z,22.72
2017-03-27T13:05:31.304Z,22.68
2017-03-27T13:06:41.235Z,22.7
2017-03-27T13:07:51.245Z,22.75
2017-03-27T13:09:01.505Z,22.68
2017-03-27T13:10:11.741Z,22.7
2017-03-27T13:11:21.665Z,22.77
2017-03-27T13:12:31.895Z,22.76
2017-03-27T13:13:41.980Z,22.73
2017-03-27T13:14:52.213Z,22.82
2017-03-27T13:16:02.118Z,22.82
2017-03-27T13:17:11.404Z,22.82
2017-03-27T13:18:21.009Z,22.79
2017-03-27T13:19:30.806Z,22.8
2017-03-27T13:20:40.162Z,22.83
2017-03-27T13:21:50.099Z,22.82
2017-03-27T13:22:59.708Z,22.8
2017-03-27T13:24:09.652Z,22.88
2017-03-27T13:25:19.422Z,22.9
2017-03-27T13:26:29.033Z,22.9
2017-03-27T13:27:38.671Z,22.85
2017-03-27T13:28:48.287Z,22.85
2017-03-27T13:29:58.523Z,22.86
2017-03-27T13:31:08.596Z,22.92
2017-03-27T13:32:18.516Z,22.9
2017-03-27T13:33:28.752Z,22.83
2017-03-27T13:34:38.080Z,22.88
2017-03-27T13:35:47.703Z,22.86
2017-03-27T13:36:58.074Z,22.92
2017-03-27T13:38:08.304Z,22.86
2017-03-27T13:39:18.546Z,22.92
2017-03-27T13:40:28.783Z,22.88
2017-03-27T13:41:39.007Z,22.85
2017-03-27T13:42:49.074Z,22.9
2017-03-27T13:43:58.997Z,22.94
2017-03-27T13:45:08.930Z,22.88
2017-03-27T13:46:19.168Z,22.9
2017-03-27T13:47:28.764Z,22.82
2017-03-27T13:48:38.542Z,22.91
2017-03-27T13:49:48.788Z,22.92
2017-03-27T13:50:58.395Z,22.83
2017-03-27T13:52:07.704Z,22.86
2017-03-27T13:53:17.009Z,22.91
2017-03-27T13:54:26.758Z,22.85
2017-03-27T13:55:36.059Z,22.82
2017-03-27T13:56:45.650Z,22.82
2017-03-27T13:57:55.251Z,22.88
2017-03-27T13:59:04.864Z,22.8
2017-03-27T14:00:14.615Z,22.83
2017-03-27T14:01:24.839Z,22.82
2017-03-27T14:02:35.063Z,22.83
2017-03-27T14:03:44.667Z,22.86
2017-03-27T14:04:54.597Z,22.8
2017-03-27T14:06:04.962Z,22.88
2017-03-27T14:07:14.278Z,22.79
2017-03-27T14:08:24.199Z,22.82
2017-03-27T14:09:33.822Z,22.82
2017-03-27T14:10:44.045Z,22.77
2017-03-27T14:11:54.120Z,22.8
2017-03-27T14:13:04.340Z,22.85
2017-03-27T14:14:13.330Z,22.8
2017-03-27T14:15:23.236Z,22.83
2017-03-27T14:16:32.844Z,22.85
2017-03-27T14:17:43.231Z,22.83
2017-03-27T14:18:53.464Z,22.82
2017-03-27T14:20:03.075Z,22.83
2017-03-27T14:21:12.990Z,22.82
2017-03-27T14:22:22.906Z,22.82
2017-03-27T14:23:33.282Z,22.82
2017-03-27T14:24:43.194Z,22.8
2017-03-27T14:25:52.787Z,22.8
2017-03-27T14:27:02.694Z,22.73
2017-03-27T14:28:12.611Z,22.8
2017-03-27T14:29:22.689Z,22.82
2017-03-27T14:30:32.935Z,22.82
2017-03-27T14:31:43.148Z,22.8
2017-03-27T14:32:53.378Z,22.79
2017-03-27T14:34:03.284Z,22.76
2017-03-27T14:35:13.333Z,22.77
2017-03-27T14:36:22.940Z,22.75
2017-03-27T14:37:32.235Z,22.77
2017-03-27T14:38:41.864Z,22.77
2017-03-27T14:39:51.482Z,22.77
2017-03-27T14:41:01.258Z,22.75
2017-03-27T14:42:10.926Z,22.76
2017-03-27T14:43:20.851Z,22.77
2017-03-27T14:44:30.474Z,22.8
2017-03-27T14:45:40.086Z,22.77
2017-03-27T14:46:50.104Z,22.79
2017-03-27T14:48:00.021Z,22.73
2017-03-27T14:49:09.943Z,22.86
2017-03-27T14:50:19.874Z,22.79
2017-03-27T14:51:30.090Z,22.77
2017-03-27T14:52:40.101Z,22.82
2017-03-27T14:53:50.333Z,22.85
2017-03-27T14:55:00.248Z,22.82
2017-03-27T14:56:10.178Z,22.86
2017-03-27T14:57:20.105Z,22.8
2017-03-27T14:58:29.516Z,22.91
2017-03-27T14:59:38.828Z,22.9
2017-03-27T15:00:49.065Z,22.9
2017-03-27T15:01:58.985Z,22.85
2017-03-27T15:03:08.596Z,22.86
2017-03-27T15:04:18.004Z,22.91